Time;durP1;ratioP1;P1;durP2;ratioP2;P2;SDS_P1;SDS_P2;PMS_P1;PMS_P2;Temp;Humidity;BMP_temperature;BMP_pressure;BME280_temperature;BME280_humidity;BME280_pressure;Samples;Min_cycle;Max_cycle;Signal;HPM_P1;HPM_P2
2023/08/25 00:02:19;;;;;;;2.42;1.05;;;;;;;;;;5035903;28;20209;-29
2023/08/25 00:04:46;;;;;;;2.05;0.93;;;;;;;;;;5045774;28;20236;-34
2023/08/25 00:07:14;;;;;;;2.88;1.20;;;;;;;;;;5034240;28;20224;-31
2023/08/25 00:09:41;;;;;;;2.33;1.23;;;;;;;;;;5043692;28;20199;-32
2023/08/25 00:12:09;;;;;;;3.25;1.15;;;;;;;;;;5042089;28;20325;-30
2023/08/25 00:14:36;;;;;;;2.65;1.27;;;;;;;;;;5029600;28;20200;-31
2023/08/25 00:17:03;;;;;;;2.80;1.15;;;;;;;;;;5036319;28;20203;-33
2023/08/25 00:19:30;;;;;;;3.92;1.40;;;;;;;;;;5033815;28;20220;-34
2023/08/25 00:21:57;;;;;;;5.43;1.25;;;;;;;;;;5042919;28;20233;-28
2023/08/25 00:24:26;;;;;;;4.57;1.00;;;;;;;;;;5034574;28;20295;-31
2023/08/25 00:26:53;;;;;;;3.63;1.23;;;;;;;;;;5035791;28;20289;-30
2023/08/25 00:29:21;;;;;;;1.75;1.00;;;;;;;;;;5030609;28;20220;-32
2023/08/25 00:31:48;;;;;;;1.60;0.80;;;;;;;;;;5039059;28;20223;-30
2023/08/25 00:34:15;;;;;;;1.48;1.10;;;;;;;;;;5039513;28;20284;-34
2023/08/25 00:36:42;;;;;;;1.13;0.98;;;;;;;;;;5050665;28;20204;-30
2023/08/25 00:39:09;;;;;;;1.23;1.13;;;;;;;;;;5042139;28;20264;-32
2023/08/25 00:41:39;;;;;;;1.60;1.50;;;;;;;;;;5046296;28;20245;-28
2023/08/25 00:44:06;;;;;;;3.60;1.40;;;;;;;;;;5030579;28;20205;-30
2023/08/25 00:46:33;;;;;;;1.48;0.90;;;;;;;;;;5030303;28;20209;-33
2023/08/25 00:49:00;;;;;;;1.33;1.23;;;;;;;;;;5305156;22;20240;-35
2023/08/25 00:51:28;;;;;;;2.58;1.30;;;;;;;;;;5061118;28;20322;-34
2023/08/25 00:53:55;;;;;;;2.08;1.40;;;;;;;;;;5065833;28;20279;-33
2023/08/25 00:56:23;;;;;;;3.63;1.55;;;;;;;;;;5069329;28;20214;-34
2023/08/25 00:58:51;;;;;;;2.75;1.05;;;;;;;;;;5070768;28;20196;-33
2023/08/25 01:01:19;;;;;;;0.95;0.90;;;;;;;;;;5064587;28;20245;-34
2023/08/25 01:03:48;;;;;;;1.00;1.00;;;;;;;;;;5069328;28;20231;-36
2023/08/25 01:06:15;;;;;;;1.10;1.05;;;;;;;;;;5065886;28;20288;-33
2023/08/25 01:08:43;;;;;;;3.03;1.33;;;;;;;;;;5059228;28;20195;-37
2023/08/25 01:11:15;;;;;;;0.95;0.95;;;;;;;;;;5065168;28;20224;-33
2023/08/25 01:13:49;;;;;;;1.20;1.10;;;;;;;;;;5069879;28;20203;-35
2023/08/25 01:16:22;;;;;;;1.00;1.00;;;;;;;;;;5065828;28;20216;-35
2023/08/25 01:18:49;;;;;;;1.42;1.30;;;;;;;;;;5063937;28;20196;-33
2023/08/25 01:21:16;;;;;;;2.78;1.15;;;;;;;;;;5065329;28;20226;-33
2023/08/25 01:23:47;;;;;;;2.33;1.23;;;;;;;;;;5062287;28;20290;-35
2023/08/25 01:26:17;;;;;;;1.70;1.10;;;;;;;;;;5068859;28;20196;-38
2023/08/25 01:28:44;;;;;;;2.85;1.00;;;;;;;;;;5070624;28;20307;-35
2023/08/25 01:31:11;;;;;;;2.50;1.35;;;;;;;;;;5062474;28;20311;-37
2023/08/25 01:33:39;;;;;;;2.47;1.15;;;;;;;;;;5066391;28;20301;-36
2023/08/25 01:36:10;;;;;;;1.67;1.20;;;;;;;;;;5074150;28;20205;-33
2023/08/25 01:38:39;;;;;;;1.45;1.23;;;;;;;;;;5067329;28;20235;-37
2023/08/25 01:41:09;;;;;;;1.80;1.20;;;;;;;;;;5073987;28;20227;-38
2023/08/25 01:43:39;;;;;;;2.53;1.35;;;;;;;;;;5054181;28;20194;-37
2023/08/25 01:46:08;;;;;;;2.47;1.58;;;;;;;;;;5063440;28;20204;-32
2023/08/25 01:48:36;;;;;;;1.30;1.20;;;;;;;;;;5060576;28;20358;-36
2023/08/25 01:51:03;;;;;;;3.20;1.70;;;;;;;;;;5073846;28;20214;-36
2023/08/25 01:53:31;;;;;;;1.20;1.20;;;;;;;;;;5052554;28;20203;-34
2023/08/25 01:55:58;;;;;;;1.95;1.13;;;;;;;;;;5068823;28;20301;-37
2023/08/25 01:58:25;;;;;;;1.98;1.10;;;;;;;;;;5073652;28;20205;-39
2023/08/25 02:00:53;;;;;;;2.20;1.25;;;;;;;;;;5069637;28;20229;-37
2023/08/25 02:03:21;;;;;;;1.25;1.20;;;;;;;;;;5065207;28;20202;-37
2023/08/25 02:05:48;;;;;;;2.97;1.33;;;;;;;;;;5073408;28;20205;-33
2023/08/25 02:08:15;;;;;;;0.93;0.93;;;;;;;;;;5064572;28;20203;-34
2023/08/25 02:10:42;;;;;;;2.65;1.60;;;;;;;;;;5074362;28;20207;-39
2023/08/25 02:13:09;;;;;;;3.75;1.83;;;;;;;;;;5074488;28;20515;-35
2023/08/25 02:15:36;;;;;;;4.43;1.30;;;;;;;;;;5061953;28;20204;-36
2023/08/25 02:18:05;;;;;;;1.58;1.20;;;;;;;;;;5074754;28;20223;-36
2023/08/25 02:20:32;;;;;;;1.83;1.20;;;;;;;;;;5075412;28;20216;-38
2023/08/25 02:22:59;;;;;;;2.22;1.27;;;;;;;;;;5066400;28;20202;-32
2023/08/25 02:25:26;;;;;;;1.60;1.50;;;;;;;;;;5073061;28;20200;-39
2023/08/25 02:27:53;;;;;;;4.28;2.05;;;;;;;;;;5072799;28;20199;-36
2023/08/25 02:30:20;;;;;;;2.15;1.40;;;;;;;;;;5067433;28;20223;-33
2023/08/25 02:32:48;;;;;;;1.50;1.40;;;;;;;;;;5066447;28;20207;-37
2023/08/25 02:35:16;;;;;;;4.07;1.70;;;;;;;;;;5072973;28;20610;-33
2023/08/25 02:37:57;;;;;;;1.88;1.30;;;;;;;;;;5063435;28;20194;-36
2023/08/25 02:40:24;;;;;;;1.50;1.40;;;;;;;;;;5071004;28;20556;-38
2023/08/25 02:42:51;;;;;;;1.73;1.13;;;;;;;;;;5073068;28;20208;-33
2023/08/25 02:45:19;;;;;;;3.78;1.70;;;;;;;;;;5067485;28;20216;-34
2023/08/25 02:47:46;;;;;;;2.97;1.40;;;;;;;;;;5064323;28;20204;-36
2023/08/25 02:50:14;;;;;;;2.55;1.50;;;;;;;;;;5064449;28;20226;-34
2023/08/25 02:52:42;;;;;;;3.55;1.63;;;;;;;;;;5061704;28;20207;-34
2023/08/25 02:55:11;;;;;;;3.38;1.48;;;;;;;;;;5072334;28;20221;-36
2023/08/25 02:57:38;;;;;;;2.05;1.20;;;;;;;;;;5072023;28;20197;-39
2023/08/25 03:00:07;;;;;;;3.53;1.23;;;;;;;;;;5064743;28;20206;-37
2023/08/25 03:02:35;;;;;;;1.92;1.48;;;;;;;;;;5065122;28;20243;-38
2023/08/25 03:05:02;;;;;;;1.48;1.38;;;;;;;;;;5073019;28;20208;-33
2023/08/25 03:07:29;;;;;;;3.30;1.33;;;;;;;;;;5064420;28;20207;-37
2023/08/25 03:09:57;;;;;;;1.80;1.40;;;;;;;;;;5063350;28;20212;-33
2023/08/25 03:12:26;;;;;;;1.63;1.52;;;;;;;;;;5072600;28;20208;-33
2023/08/25 03:14:53;;;;;;;1.60;1.45;;;;;;;;;;5066739;28;20466;-36
2023/08/25 03:17:21;;;;;;;4.15;1.42;;;;;;;;;;5061396;28;20206;-35
2023/08/25 03:19:48;;;;;;;1.40;1.30;;;;;;;;;;5071628;28;20197;-38
2023/08/25 03:22:15;;;;;;;3.95;1.85;;;;;;;;;;5065538;28;20296;-33
2023/08/25 03:24:42;;;;;;;2.22;1.17;;;;;;;;;;5071839;28;20195;-34
2023/08/25 03:27:11;;;;;;;1.65;1.42;;;;;;;;;;5072367;28;20196;-38
2023/08/25 03:29:38;;;;;;;2.60;1.48;;;;;;;;;;5071687;28;20373;-36
2023/08/25 03:32:05;;;;;;;3.72;1.77;;;;;;;;;;5066551;28;20648;-33
2023/08/25 03:34:33;;;;;;;1.35;1.27;;;;;;;;;;5071025;28;20197;-35
2023/08/25 03:37:00;;;;;;;1.55;1.45;;;;;;;;;;5062673;28;20203;-40
2023/08/25 03:39:28;;;;;;;4.10;1.58;;;;;;;;;;5071154;28;20215;-37
2023/08/25 03:41:55;;;;;;;2.00;1.70;;;;;;;;;;5072398;28;20225;-37
2023/08/25 03:44:23;;;;;;;2.72;1.75;;;;;;;;;;5072605;28;20654;-37
2023/08/25 03:46:50;;;;;;;1.67;1.58;;;;;;;;;;5067031;28;20198;-35
2023/08/25 03:49:18;;;;;;;4.45;1.80;;;;;;;;;;5055601;28;20277;-38
2023/08/25 03:51:45;;;;;;;2.53;1.65;;;;;;;;;;5064304;28;20218;-34
2023/08/25 03:54:12;;;;;;;3.47;1.70;;;;;;;;;;5056546;28;20211;-37
2023/08/25 03:56:39;;;;;;;2.15;1.38;;;;;;;;;;5071280;28;20198;-35
2023/08/25 03:59:06;;;;;;;1.83;1.52;;;;;;;;;;5069198;28;20205;-37
2023/08/25 04:01:35;;;;;;;2.00;1.80;;;;;;;;;;5061497;28;20241;-37
2023/08/25 04:04:02;;;;;;;3.58;1.88;;;;;;;;;;5065893;28;20208;-37
2023/08/25 04:06:29;;;;;;;1.73;1.60;;;;;;;;;;5069053;28;20284;-36
2023/08/25 04:08:58;;;;;;;2.83;1.67;;;;;;;;;;5059106;28;20201;-36
2023/08/25 04:11:25;;;;;;;3.88;1.75;;;;;;;;;;5070762;28;20246;-38
2023/08/25 04:13:52;;;;;;;2.42;1.88;;;;;;;;;;5072857;28;20254;-38
2023/08/25 04:16:20;;;;;;;1.55;1.38;;;;;;;;;;5069540;28;20659;-33
2023/08/25 04:18:48;;;;;;;1.90;1.80;;;;;;;;;;5068998;28;20294;-37
2023/08/25 04:21:15;;;;;;;1.70;1.45;;;;;;;;;;5070195;28;20256;-36
2023/08/25 04:23:42;;;;;;;2.20;1.20;;;;;;;;;;5066438;28;20275;-37
2023/08/25 04:26:09;;;;;;;4.78;1.65;;;;;;;;;;5070531;28;20205;-37
2023/08/25 04:28:37;;;;;;;3.45;2.00;;;;;;;;;;5071163;28;20209;-34
2023/08/25 04:31:04;;;;;;;2.10;1.83;;;;;;;;;;5065048;28;20217;-35
2023/08/25 04:33:31;;;;;;;1.60;1.50;;;;;;;;;;5062606;28;20208;-33
2023/08/25 04:36:00;;;;;;;4.00;1.80;;;;;;;;;;5064971;28;20201;-37
2023/08/25 04:38:27;;;;;;;2.10;1.52;;;;;;;;;;5063339;28;20212;-35
2023/08/25 04:40:54;;;;;;;1.63;1.52;;;;;;;;;;5061383;28;20274;-35
2023/08/25 04:43:21;;;;;;;1.80;1.60;;;;;;;;;;5068995;28;20197;-35
2023/08/25 04:45:48;;;;;;;1.55;1.45;;;;;;;;;;5069817;28;20186;-35
2023/08/25 04:48:15;;;;;;;2.47;1.75;;;;;;;;;;5070267;28;20208;-37
2023/08/25 04:50:43;;;;;;;3.38;1.88;;;;;;;;;;5061890;28;20235;-34
2023/08/25 04:53:11;;;;;;;2.33;1.80;;;;;;;;;;5064037;28;20887;-36
2023/08/25 04:55:39;;;;;;;2.03;1.65;;;;;;;;;;5070665;28;20194;-35
2023/08/25 04:58:06;;;;;;;4.97;1.30;;;;;;;;;;5070910;28;20189;-33
2023/08/25 05:00:33;;;;;;;3.03;1.40;;;;;;;;;;5064709;28;20316;-35
2023/08/25 05:03:00;;;;;;;3.67;1.60;;;;;;;;;;5072524;28;20292;-34
2023/08/25 05:05:27;;;;;;;2.97;1.65;;;;;;;;;;5072374;28;20280;-34
2023/08/25 05:07:54;;;;;;;1.63;1.52;;;;;;;;;;5062496;28;20196;-36
2023/08/25 05:10:23;;;;;;;7.47;2.03;;;;;;;;;;5071779;28;20231;-38
2023/08/25 05:12:50;;;;;;;3.95;1.65;;;;;;;;;;5073763;28;20193;-35
2023/08/25 05:15:17;;;;;;;1.70;1.60;;;;;;;;;;5074083;28;20291;-37
2023/08/25 05:17:44;;;;;;;1.98;1.40;;;;;;;;;;5062845;28;20207;-33
2023/08/25 05:20:12;;;;;;;8.85;1.67;;;;;;;;;;5068453;28;20217;-38
2023/08/25 05:22:50;;;;;;;1.52;1.42;;;;;;;;;;5059023;28;20236;-36
2023/08/25 05:25:44;;;;;;;1.80;1.52;;;;;;;;;;5071165;28;20227;-33
2023/08/25 05:28:20;;;;;;;2.65;2.08;;;;;;;;;;5073227;28;20238;-33
2023/08/25 05:31:05;;;;;;;2.53;1.50;;;;;;;;;;5073001;28;20232;-36
2023/08/25 05:33:33;;;;;;;4.53;1.88;;;;;;;;;;5069222;28;20257;-36
2023/08/25 05:36:06;;;;;;;2.90;1.85;;;;;;;;;;5071304;28;20280;-35
2023/08/25 05:38:33;;;;;;;6.07;1.90;;;;;;;;;;5063113;28;20224;-37
2023/08/25 05:41:01;;;;;;;5.13;1.70;;;;;;;;;;5070896;28;20228;-33
2023/08/25 05:43:28;;;;;;;5.55;1.92;;;;;;;;;;5056348;28;20209;-32
2023/08/25 05:45:57;;;;;;;3.92;2.20;;;;;;;;;;5065815;28;20290;-35
2023/08/25 05:48:25;;;;;;;3.40;2.15;;;;;;;;;;5072221;28;20278;-37
2023/08/25 05:50:56;;;;;;;2.13;1.80;;;;;;;;;;5071944;28;20282;-35
2023/08/25 05:53:23;;;;;;;3.15;2.00;;;;;;;;;;5060035;28;20199;-32
2023/08/25 05:55:52;;;;;;;2.20;1.98;;;;;;;;;;5064166;28;20200;-37
2023/08/25 05:58:19;;;;;;;4.50;2.38;;;;;;;;;;5067643;28;20206;-38
2023/08/25 06:00:46;;;;;;;4.07;2.20;;;;;;;;;;5070046;28;20225;-33
2023/08/25 06:03:14;;;;;;;4.55;1.83;;;;;;;;;;5065869;28;20201;-32
2023/08/25 06:05:42;;;;;;;4.63;2.17;;;;;;;;;;5067969;28;20198;-38
2023/08/25 06:08:24;;;;;;;4.47;1.92;;;;;;;;;;5064855;28;20214;-36
2023/08/25 06:10:52;;;;;;;3.47;2.53;;;;;;;;;;5066572;28;20218;-34
2023/08/25 06:13:28;;;;;;;4.15;2.00;;;;;;;;;;5071396;28;20207;-34
2023/08/25 06:15:55;;;;;;;2.65;1.65;;;;;;;;;;5065117;28;20229;-34
2023/08/25 06:18:22;;;;;;;2.67;1.95;;;;;;;;;;5057509;28;20197;-34
2023/08/25 06:20:52;;;;;;;3.08;1.90;;;;;;;;;;5075199;28;20232;-35
2023/08/25 06:23:19;;;;;;;2.90;2.30;;;;;;;;;;5069512;28;20496;-33
2023/08/25 06:26:09;;;;;;;2.22;1.80;;;;;;;;;;5069127;28;20204;-36
2023/08/25 06:28:36;;;;;;;2.67;1.88;;;;;;;;;;5072035;28;20251;-39
2023/08/25 06:31:04;;;;;;;2.80;2.08;;;;;;;;;;5069133;28;20217;-37
2023/08/25 06:33:31;;;;;;;3.38;1.80;;;;;;;;;;5070497;28;20290;-38
2023/08/25 06:36:00;;;;;;;3.35;2.15;;;;;;;;;;5075543;28;20285;-33
2023/08/25 06:38:27;;;;;;;8.93;2.63;;;;;;;;;;5059284;28;20211;-34
2023/08/25 06:40:55;;;;;;;6.18;2.28;;;;;;;;;;5074816;28;20714;-35
2023/08/25 06:43:22;;;;;;;6.95;2.83;;;;;;;;;;5075824;28;20193;-35
2023/08/25 06:45:49;;;;;;;3.28;2.40;;;;;;;;;;5068043;28;20199;-36
2023/08/25 06:48:17;;;;;;;5.35;2.80;;;;;;;;;;5070460;28;20198;-35
2023/08/25 06:50:44;;;;;;;3.63;2.33;;;;;;;;;;5328830;22;20228;-31
2023/08/25 06:53:12;;;;;;;2.97;2.40;;;;;;;;;;5086877;28;20295;-30
2023/08/25 06:55:39;;;;;;;4.68;2.33;;;;;;;;;;5072592;28;20212;-28
2023/08/25 06:58:07;;;;;;;2.63;2.40;;;;;;;;;;5079043;28;20208;-29
2023/08/25 07:00:34;;;;;;;5.22;3.17;;;;;;;;;;5086624;28;20225;-30
2023/08/25 07:03:01;;;;;;;4.93;2.33;;;;;;;;;;5084419;28;20247;-30
2023/08/25 07:05:29;;;;;;;2.70;2.30;;;;;;;;;;5092665;28;20291;-32
2023/08/25 07:07:56;;;;;;;5.13;2.42;;;;;;;;;;5076955;28;20205;-32
2023/08/25 07:10:24;;;;;;;3.70;2.20;;;;;;;;;;5084813;28;20254;-30
2023/08/25 07:12:51;;;;;;;4.50;2.63;;;;;;;;;;5092625;28;20288;-32
2023/08/25 07:15:19;;;;;;;6.85;2.63;;;;;;;;;;5083992;28;20213;-33
2023/08/25 07:17:47;;;;;;;4.47;2.63;;;;;;;;;;5090405;28;20197;-34
2023/08/25 07:20:14;;;;;;;2.40;2.20;;;;;;;;;;5086267;28;20245;-31
2023/08/25 07:22:41;;;;;;;3.75;2.47;;;;;;;;;;5086522;28;20222;-31
2023/08/25 07:25:09;;;;;;;5.00;2.75;;;;;;;;;;5084752;28;20205;-29
2023/08/25 07:27:37;;;;;;;2.42;2.20;;;;;;;;;;5092365;28;20227;-33
2023/08/25 07:30:06;;;;;;;2.53;2.30;;;;;;;;;;5083056;28;20206;-32
2023/08/25 07:32:33;;;;;;;4.97;2.40;;;;;;;;;;5089928;28;20193;-32
2023/08/25 07:35:00;;;;;;;3.33;2.22;;;;;;;;;;5092433;28;20213;-32
2023/08/25 07:37:27;;;;;;;3.35;2.40;;;;;;;;;;5086429;28;20271;-30
2023/08/25 07:39:55;;;;;;;4.03;2.92;;;;;;;;;;5083068;28;20299;-31
2023/08/25 07:42:23;;;;;;;2.60;2.40;;;;;;;;;;5091869;28;20311;-33
2023/08/25 07:44:51;;;;;;;2.92;2.63;;;;;;;;;;5091870;28;20265;-29
2023/08/25 07:47:18;;;;;;;3.13;2.40;;;;;;;;;;5081421;28;20276;-31
2023/08/25 07:49:45;;;;;;;2.78;2.20;;;;;;;;;;5091245;28;20196;-32
2023/08/25 07:52:13;;;;;;;2.35;2.15;;;;;;;;;;5086009;28;20236;-33
2023/08/25 07:54:40;;;;;;;2.75;2.00;;;;;;;;;;5091546;28;20200;-29
2023/08/25 07:57:07;;;;;;;3.22;2.05;;;;;;;;;;5091786;28;20200;-29
2023/08/25 07:59:34;;;;;;;2.67;2.08;;;;;;;;;;5088154;28;20274;-32
2023/08/25 08:02:03;;;;;;;5.43;2.28;;;;;;;;;;5091085;28;20240;-30
2023/08/25 08:04:31;;;;;;;5.07;2.60;;;;;;;;;;5091150;28;20193;-32
2023/08/25 08:07:00;;;;;;;6.88;2.72;;;;;;;;;;5085439;28;20230;-31
2023/08/25 08:09:27;;;;;;;2.67;2.20;;;;;;;;;;5076505;28;20205;-31
2023/08/25 08:11:54;;;;;;;4.45;2.63;;;;;;;;;;5091134;28;20212;-33
2023/08/25 08:14:22;;;;;;;2.45;2.10;;;;;;;;;;5087195;28;20292;-29
2023/08/25 08:16:49;;;;;;;2.63;2.20;;;;;;;;;;5090012;28;20200;-31
2023/08/25 08:19:17;;;;;;;2.75;2.17;;;;;;;;;;5091169;28;20210;-32
2023/08/25 08:21:44;;;;;;;2.45;2.25;;;;;;;;;;5085918;28;20226;-32
2023/08/25 08:24:12;;;;;;;3.25;2.42;;;;;;;;;;5079512;28;20232;-31
2023/08/25 08:26:40;;;;;;;2.30;2.10;;;;;;;;;;5090725;28;20407;-34
2023/08/25 08:29:07;;;;;;;4.32;2.20;;;;;;;;;;5089381;28;20287;-30
2023/08/25 08:31:34;;;;;;;1.98;1.85;;;;;;;;;;5086546;28;20440;-27
2023/08/25 08:34:01;;;;;;;3.92;1.83;;;;;;;;;;5090860;28;20206;-32
2023/08/25 08:36:30;;;;;;;2.75;1.85;;;;;;;;;;5088133;28;20212;-32
2023/08/25 08:38:58;;;;;;;4.88;2.20;;;;;;;;;;5082610;28;20208;-32
2023/08/25 08:41:26;;;;;;;3.65;2.28;;;;;;;;;;5090551;28;20225;-30
2023/08/25 08:43:56;;;;;;;2.10;2.00;;;;;;;;;;5090229;28;20227;-29
2023/08/25 08:46:23;;;;;;;2.80;2.20;;;;;;;;;;5086092;28;20308;-28
2023/08/25 08:48:51;;;;;;;5.13;2.75;;;;;;;;;;5083931;28;20212;-31
2023/08/25 08:51:19;;;;;;;4.68;2.40;;;;;;;;;;5083447;28;20229;-29
2023/08/25 08:53:49;;;;;;;5.28;2.83;;;;;;;;;;5079634;28;20208;-30
2023/08/25 08:56:17;;;;;;;3.63;2.33;;;;;;;;;;5091075;28;20261;-30
2023/08/25 08:58:44;;;;;;;3.65;2.75;;;;;;;;;;5091096;28;20200;-30
2023/08/25 09:01:11;;;;;;;4.00;2.00;;;;;;;;;;5084203;28;20229;-32
2023/08/25 09:03:40;;;;;;;2.17;1.92;;;;;;;;;;5078943;28;20232;-29
2023/08/25 09:06:07;;;;;;;3.58;2.35;;;;;;;;;;5089435;28;20208;-32
2023/08/25 09:08:35;;;;;;;2.42;2.20;;;;;;;;;;5072068;28;20666;-31
2023/08/25 09:11:05;;;;;;;5.53;2.33;;;;;;;;;;5085910;28;20250;-31
2023/08/25 09:13:33;;;;;;;2.58;2.15;;;;;;;;;;5090589;28;20208;-33
2023/08/25 09:16:00;;;;;;;5.28;2.75;;;;;;;;;;5081056;28;20299;-32
2023/08/25 09:18:34;;;;;;;2.55;2.10;;;;;;;;;;5088144;28;20215;-32
2023/08/25 09:21:03;;;;;;;3.42;2.70;;;;;;;;;;5090987;28;20228;-29
2023/08/25 09:23:30;;;;;;;4.78;2.30;;;;;;;;;;5078576;28;20228;-29
2023/08/25 09:25:58;;;;;;;4.35;2.55;;;;;;;;;;5085326;28;20214;-32
2023/08/25 09:28:27;;;;;;;3.85;2.45;;;;;;;;;;5091707;28;20205;-32
2023/08/25 09:30:54;;;;;;;3.28;2.42;;;;;;;;;;5088954;28;20228;-29
2023/08/25 09:33:21;;;;;;;3.33;2.35;;;;;;;;;;5081017;28;20200;-30
2023/08/25 09:35:49;;;;;;;2.58;2.38;;;;;;;;;;5090531;28;20193;-30
2023/08/25 09:38:22;;;;;;;3.65;2.20;;;;;;;;;;5080898;28;20211;-32
2023/08/25 09:40:49;;;;;;;3.08;2.47;;;;;;;;;;5090083;28;20220;-32
2023/08/25 09:43:17;;;;;;;5.07;2.10;;;;;;;;;;5090182;28;20243;-32
2023/08/25 09:45:46;;;;;;;3.05;2.60;;;;;;;;;;5080449;28;20198;-29
2023/08/25 09:48:13;;;;;;;3.42;2.17;;;;;;;;;;5083791;28;20204;-29
2023/08/25 09:50:41;;;;;;;2.58;2.38;;;;;;;;;;5090173;28;20225;-30
2023/08/25 09:53:08;;;;;;;2.38;2.17;;;;;;;;;;5086713;28;20211;-30
2023/08/25 09:55:37;;;;;;;4.25;2.28;;;;;;;;;;5084928;28;20202;-30
2023/08/25 09:58:05;;;;;;;2.83;2.50;;;;;;;;;;5094362;28;20227;-29
2023/08/25 10:00:32;;;;;;;3.85;1.98;;;;;;;;;;5088210;28;20219;-29
2023/08/25 10:03:02;;;;;;;2.92;2.25;;;;;;;;;;5087246;28;20225;-34
2023/08/25 10:05:30;;;;;;;3.03;2.20;;;;;;;;;;5094254;28;20201;-30
2023/08/25 10:07:58;;;;;;;3.45;2.00;;;;;;;;;;5087528;28;20208;-31
2023/08/25 10:10:26;;;;;;;3.90;2.10;;;;;;;;;;5089951;28;20333;-31
2023/08/25 10:12:55;;;;;;;3.72;2.33;;;;;;;;;;5094289;28;20208;-31
2023/08/25 10:15:22;;;;;;;3.15;2.03;;;;;;;;;;5090625;28;20210;-30
2023/08/25 10:17:50;;;;;;;3.10;2.10;;;;;;;;;;5086401;28;20224;-29
2023/08/25 10:20:23;;;;;;;3.33;2.25;;;;;;;;;;5093875;28;20225;-30
2023/08/25 10:22:51;;;;;;;3.45;1.95;;;;;;;;;;5084734;28;20218;-32
2023/08/25 10:25:19;;;;;;;3.55;2.35;;;;;;;;;;5083893;28;20212;-30
2023/08/25 10:27:46;;;;;;;3.75;2.10;;;;;;;;;;5093630;28;20197;-34
2023/08/25 10:30:15;;;;;;;2.30;2.08;;;;;;;;;;5086106;28;20245;-32
2023/08/25 10:32:52;;;;;;;2.20;1.98;;;;;;;;;;5093348;28;20198;-30
2023/08/25 10:35:34;;;;;;;2.72;2.17;;;;;;;;;;5094490;28;20214;-30
2023/08/25 10:38:02;;;;;;;3.20;2.05;;;;;;;;;;5081967;28;20294;-31
2023/08/25 10:40:41;;;;;;;2.72;1.70;;;;;;;;;;5093570;28;20225;-30
2023/08/25 10:43:08;;;;;;;1.85;1.75;;;;;;;;;;5094087;28;20214;-29
2023/08/25 10:45:36;;;;;;;3.00;2.05;;;;;;;;;;5085470;28;20202;-32
2023/08/25 10:48:03;;;;;;;3.65;1.90;;;;;;;;;;5088938;28;20210;-33
2023/08/25 10:50:30;;;;;;;4.15;2.28;;;;;;;;;;5093221;28;20242;-32
2023/08/25 10:52:57;;;;;;;2.17;1.98;;;;;;;;;;5078079;28;20209;-30
2023/08/25 10:55:28;;;;;;;2.47;2.08;;;;;;;;;;5084811;28;20293;-30
2023/08/25 10:58:01;;;;;;;2.22;2.05;;;;;;;;;;5093034;28;20202;-31
2023/08/25 11:00:30;;;;;;;3.40;2.03;;;;;;;;;;5077435;28;20251;-31
2023/08/25 11:02:57;;;;;;;2.03;1.83;;;;;;;;;;5084630;28;20582;-33
2023/08/25 11:05:43;;;;;;;3.00;2.08;;;;;;;;;;5079179;28;20201;-34
2023/08/25 11:08:29;;;;;;;2.58;2.28;;;;;;;;;;5081506;28;20214;-32
2023/08/25 11:11:14;;;;;;;2.33;1.70;;;;;;;;;;5088671;28;20241;-32
2023/08/25 11:13:42;;;;;;;2.20;1.98;;;;;;;;;;5084250;28;20281;-29
2023/08/25 11:16:10;;;;;;;2.28;2.05;;;;;;;;;;5084308;28;20198;-29
2023/08/25 11:18:37;;;;;;;2.40;2.20;;;;;;;;;;5091042;28;20211;-33
2023/08/25 11:21:04;;;;;;;2.83;2.03;;;;;;;;;;5087771;28;20225;-30
2023/08/25 11:23:41;;;;;;;3.13;1.95;;;;;;;;;;5083682;28;20215;-30
2023/08/25 11:26:09;;;;;;;4.32;1.90;;;;;;;;;;5089804;28;20217;-29
2023/08/25 11:28:38;;;;;;;4.60;2.10;;;;;;;;;;5074333;28;20195;-31
2023/08/25 11:31:06;;;;;;;2.17;1.88;;;;;;;;;;5080843;28;20246;-31
2023/08/25 11:33:33;;;;;;;2.08;1.90;;;;;;;;;;5086363;28;20198;-32
2023/08/25 11:36:02;;;;;;;2.58;1.90;;;;;;;;;;5093018;28;20200;-32
2023/08/25 11:38:30;;;;;;;2.30;2.10;;;;;;;;;;5072838;28;20286;-32
2023/08/25 11:40:58;;;;;;;2.10;1.88;;;;;;;;;;5080031;28;20223;-29
2023/08/25 11:43:28;;;;;;;2.10;1.88;;;;;;;;;;5091875;28;20221;-32
2023/08/25 11:45:58;;;;;;;2.88;2.15;;;;;;;;;;5092896;28;20208;-32
2023/08/25 11:48:25;;;;;;;2.15;1.95;;;;;;;;;;5089845;28;20214;-29
2023/08/25 11:50:52;;;;;;;2.55;2.17;;;;;;;;;;5084799;28;20231;-33
2023/08/25 11:53:19;;;;;;;2.20;2.00;;;;;;;;;;5085406;28;20210;-32
2023/08/25 11:55:58;;;;;;;3.22;2.03;;;;;;;;;;5087286;28;20195;-30
2023/08/25 11:58:29;;;;;;;2.75;2.08;;;;;;;;;;5093677;28;20230;-29
2023/08/25 12:01:01;;;;;;;1.75;1.65;;;;;;;;;;5085541;28;20287;-34
2023/08/25 12:03:32;;;;;;;2.15;1.92;;;;;;;;;;5086301;28;20251;-31
2023/08/25 12:06:00;;;;;;;2.83;2.15;;;;;;;;;;5091219;28;20271;-30
2023/08/25 12:08:28;;;;;;;2.05;1.90;;;;;;;;;;5080598;28;20205;-31
2023/08/25 12:10:56;;;;;;;2.92;1.75;;;;;;;;;;5087796;28;20305;-32
2023/08/25 12:13:29;;;;;;;2.00;1.90;;;;;;;;;;5092296;28;20215;-29
2023/08/25 12:15:58;;;;;;;1.95;1.80;;;;;;;;;;5077638;28;20293;-30
2023/08/25 12:18:33;;;;;;;2.38;1.90;;;;;;;;;;5089717;28;20215;-32
2023/08/25 12:21:00;;;;;;;1.75;1.65;;;;;;;;;;5091012;28;20222;-29
2023/08/25 12:23:33;;;;;;;2.45;1.90;;;;;;;;;;5080886;28;20219;-30
2023/08/25 12:26:00;;;;;;;2.72;1.90;;;;;;;;;;5085637;28;20199;-30
2023/08/25 12:28:27;;;;;;;2.70;2.05;;;;;;;;;;5093134;28;20271;-31
2023/08/25 12:30:54;;;;;;;2.05;1.90;;;;;;;;;;5091483;28;20226;-32
2023/08/25 12:33:22;;;;;;;5.35;2.50;;;;;;;;;;5087192;28;20206;-31
2023/08/25 12:35:50;;;;;;;2.50;2.17;;;;;;;;;;5090384;28;20194;-30
2023/08/25 12:38:25;;;;;;;2.15;2.00;;;;;;;;;;5073902;28;20202;-29
2023/08/25 12:40:59;;;;;;;2.60;1.90;;;;;;;;;;5087451;28;20214;-32
2023/08/25 12:43:27;;;;;;;2.70;2.28;;;;;;;;;;5092790;28;20210;-31
2023/08/25 12:45:55;;;;;;;2.70;2.03;;;;;;;;;;5092778;28;20198;-31
2023/08/25 12:48:22;;;;;;;2.15;1.95;;;;;;;;;;5086814;28;20208;-30
2023/08/25 12:50:50;;;;;;;2.22;1.95;;;;;;;;;;5092434;28;20217;-29
2023/08/25 12:53:17;;;;;;;2.45;2.20;;;;;;;;;;5086728;28;20201;-30
2023/08/25 12:55:45;;;;;;;2.38;2.22;;;;;;;;;;5155077;22;20337;-29
2023/08/25 12:58:12;;;;;;;2.50;2.30;;;;;;;;;;5072663;28;20219;-29
2023/08/25 13:00:39;;;;;;;2.60;2.05;;;;;;;;;;5065655;28;20313;-33
2023/08/25 13:03:06;;;;;;;3.83;2.35;;;;;;;;;;5065485;28;20292;-31
2023/08/25 13:05:33;;;;;;;3.63;2.35;;;;;;;;;;5051470;28;20210;-28
2023/08/25 13:08:02;;;;;;;3.67;2.53;;;;;;;;;;5036266;28;20647;-29
2023/08/25 13:10:29;;;;;;;2.53;2.33;;;;;;;;;;5043876;28;20230;-30
2023/08/25 13:12:56;;;;;;;2.85;2.38;;;;;;;;;;5064305;28;20291;-29
2023/08/25 13:15:23;;;;;;;3.08;2.58;;;;;;;;;;5051222;28;20547;-30
2023/08/25 13:17:51;;;;;;;2.83;2.22;;;;;;;;;;5043053;28;20228;-30
2023/08/25 13:20:18;;;;;;;2.60;2.40;;;;;;;;;;5050330;28;20230;-30
2023/08/25 13:22:45;;;;;;;5.38;2.50;;;;;;;;;;5037912;28;20231;-29
2023/08/25 13:25:14;;;;;;;3.95;2.65;;;;;;;;;;5054122;28;20249;-28
2023/08/25 13:27:41;;;;;;;3.38;2.72;;;;;;;;;;5073012;28;20279;-28
2023/08/25 13:30:10;;;;;;;3.38;2.78;;;;;;;;;;5065777;28;20701;-30
2023/08/25 13:32:37;;;;;;;5.30;2.70;;;;;;;;;;5048721;28;20258;-30
2023/08/25 13:35:05;;;;;;;3.33;2.85;;;;;;;;;;5053684;28;20196;-30
2023/08/25 13:37:32;;;;;;;2.88;2.60;;;;;;;;;;5046196;28;20217;-27
2023/08/25 13:39:59;;;;;;;3.55;2.53;;;;;;;;;;5061099;28;20242;-28
2023/08/25 13:42:28;;;;;;;3.10;2.72;;;;;;;;;;5067728;28;20547;-30
2023/08/25 13:44:55;;;;;;;2.70;2.42;;;;;;;;;;5052632;28;20559;-29
2023/08/25 13:47:23;;;;;;;4.70;2.75;;;;;;;;;;5048134;28;20639;-31
2023/08/25 13:49:50;;;;;;;4.60;2.78;;;;;;;;;;5066943;28;20196;-33
2023/08/25 13:52:17;;;;;;;3.50;3.17;;;;;;;;;;5052100;28;20212;-32
2023/08/25 13:54:46;;;;;;;3.13;2.80;;;;;;;;;;5047579;28;20236;-31
2023/08/25 13:57:20;;;;;;;4.13;2.50;;;;;;;;;;5039329;28;20212;-31
2023/08/25 13:59:48;;;;;;;3.58;2.58;;;;;;;;;;5033421;28;20196;-30
2023/08/25 14:02:16;;;;;;;5.47;2.80;;;;;;;;;;5032230;28;20659;-30
2023/08/25 14:04:43;;;;;;;5.47;2.92;;;;;;;;;;5058451;28;20238;-30
2023/08/25 14:07:13;;;;;;;4.55;2.60;;;;;;;;;;5055603;28;20215;-25
2023/08/25 14:09:40;;;;;;;4.80;2.67;;;;;;;;;;5046883;28;20230;-29
2023/08/25 14:12:07;;;;;;;3.92;2.65;;;;;;;;;;5055120;28;20228;-29
2023/08/25 14:14:34;;;;;;;3.78;2.72;;;;;;;;;;5052232;28;20199;-32
2023/08/25 14:17:04;;;;;;;3.25;2.53;;;;;;;;;;5046714;28;20210;-28
2023/08/25 14:19:31;;;;;;;3.45;2.85;;;;;;;;;;5070628;28;20235;-32
2023/08/25 14:21:58;;;;;;;3.58;3.28;;;;;;;;;;5051140;28;20225;-29
2023/08/25 14:24:25;;;;;;;3.20;3.00;;;;;;;;;;5053318;28;20229;-31
2023/08/25 14:26:52;;;;;;;3.08;2.80;;;;;;;;;;5071712;28;20198;-29
2023/08/25 14:29:20;;;;;;;5.30;3.30;;;;;;;;;;5062064;28;20202;-36
2023/08/25 14:31:47;;;;;;;4.15;2.95;;;;;;;;;;5050068;28;20219;-31
2023/08/25 14:34:15;;;;;;;4.13;3.03;;;;;;;;;;5063550;28;20274;-31
2023/08/25 14:36:42;;;;;;;3.92;3.00;;;;;;;;;;5056393;28;20198;-29
2023/08/25 14:39:09;;;;;;;3.55;2.92;;;;;;;;;;5038152;28;20204;-28
2023/08/25 14:41:37;;;;;;;3.58;2.70;;;;;;;;;;5047501;28;20218;-31
2023/08/25 14:44:04;;;;;;;3.90;3.42;;;;;;;;;;5039906;28;20221;-25
2023/08/25 14:46:39;;;;;;;5.07;3.20;;;;;;;;;;5054240;28;20215;-29
2023/08/25 14:49:07;;;;;;;3.92;2.75;;;;;;;;;;5057867;28;20219;-32
2023/08/25 14:51:36;;;;;;;4.93;3.20;;;;;;;;;;5040728;28;20225;-31